Time;durP1;ratioP1;P1;durP2;ratioP2;P2;SDS_P1;SDS_P2;PMS_P1;PMS_P2;Temp;Humidity;BMP_temperature;BMP_pressure;BME280_temperature;BME280_humidity;BME280_pressure;Samples;Min_cycle;Max_cycle;Signal;HPM_P1;HPM_P2
2021/08/12 00:01:55;;;;;;;6.33;5.73;;;;;;;;;;5107661;28;20450;-71
2021/08/12 00:04:22;;;;;;;6.67;5.03;;;;;;;;;;5114013;28;20463;-70
2021/08/12 00:06:49;;;;;;;5.70;5.07;;;;;;;;;;5113569;28;20446;-71
2021/08/12 00:09:16;;;;;;;7.07;5.07;;;;;;;;;;5114362;28;20867;-71
2021/08/12 00:11:45;;;;;;;6.67;5.50;;;;;;;;;;5112954;28;20440;-72
2021/08/12 00:14:12;;;;;;;7.77;6.23;;;;;;;;;;5113079;28;20444;-71
2021/08/12 00:16:40;;;;;;;6.80;5.40;;;;;;;;;;5113310;28;20462;-71
2021/08/12 00:19:11;;;;;;;6.83;5.40;;;;;;;;;;5113843;28;20452;-71
2021/08/12 00:21:39;;;;;;;6.20;5.10;;;;;;;;;;5112908;28;20515;-71
2021/08/12 00:24:06;;;;;;;6.00;5.40;;;;;;;;;;5113574;28;20444;-71
2021/08/12 00:26:33;;;;;;;6.93;5.57;;;;;;;;;;5112789;28;20978;-71
2021/08/12 00:29:04;;;;;;;7.30;5.07;;;;;;;;;;5113057;28;20585;-71
2021/08/12 00:31:31;;;;;;;7.53;5.17;;;;;;;;;;5113664;28;20462;-71
2021/08/12 00:33:58;;;;;;;6.30;5.10;;;;;;;;;;5113036;28;20559;-71
2021/08/12 00:36:25;;;;;;;7.83;5.70;;;;;;;;;;5113487;28;20450;-71
2021/08/12 00:38:52;;;;;;;7.93;5.90;;;;;;;;;;5112660;28;21017;-72
2021/08/12 00:41:19;;;;;;;6.60;5.93;;;;;;;;;;5113235;28;20547;-72
2021/08/12 00:43:47;;;;;;;6.33;4.90;;;;;;;;;;5111424;28;20821;-72
2021/08/12 00:46:15;;;;;;;7.40;5.83;;;;;;;;;;5113338;28;20450;-72
2021/08/12 00:48:42;;;;;;;6.53;5.60;;;;;;;;;;5112461;28;20439;-72
2021/08/12 00:51:10;;;;;;;6.00;5.20;;;;;;;;;;5113360;28;20464;-72
2021/08/12 00:53:37;;;;;;;6.30;5.00;;;;;;;;;;5112454;28;20471;-72
2021/08/12 00:56:05;;;;;;;5.73;4.93;;;;;;;;;;5113120;28;21814;-72
2021/08/12 00:58:34;;;;;;;8.23;5.73;;;;;;;;;;5112839;28;20523;-72
2021/08/12 01:01:01;;;;;;;8.07;5.93;;;;;;;;;;5112796;28;20450;-72
2021/08/12 01:03:30;;;;;;;7.60;5.70;;;;;;;;;;5112769;28;20439;-72
2021/08/12 01:05:57;;;;;;;6.20;5.70;;;;;;;;;;5112024;28;20940;-71
2021/08/12 01:08:34;;;;;;;6.23;5.60;;;;;;;;;;5112919;28;20444;-71
2021/08/12 01:11:06;;;;;;;6.87;5.20;;;;;;;;;;5112876;28;20459;-71
2021/08/12 01:13:41;;;;;;;7.90;5.70;;;;;;;;;;5112484;28;20537;-71
2021/08/12 01:16:10;;;;;;;8.40;5.70;;;;;;;;;;5112521;28;20431;-71
2021/08/12 01:18:43;;;;;;;9.23;4.77;;;;;;;;;;5111996;28;20552;-71
2021/08/12 01:21:34;;;;;;;9.90;5.60;;;;;;;;;;5112887;28;20478;-72
2021/08/12 01:24:02;;;;;;;8.53;5.50;;;;;;;;;;5112493;28;20513;-72
2021/08/12 01:26:30;;;;;;;7.90;5.47;;;;;;;;;;5112502;28;20530;-72
2021/08/12 01:28:59;;;;;;;9.57;6.37;;;;;;;;;;5111991;28;20475;-72
2021/08/12 01:31:33;;;;;;;9.63;5.53;;;;;;;;;;5112459;28;20442;-71
2021/08/12 01:34:09;;;;;;;8.67;5.93;;;;;;;;;;5112545;28;20542;-71
2021/08/12 01:36:40;;;;;;;5.10;4.60;;;;;;;;;;5111835;28;20438;-71
2021/08/12 01:39:10;;;;;;;6.70;5.50;;;;;;;;;;5112469;28;20430;-72
2021/08/12 01:41:38;;;;;;;6.13;5.40;;;;;;;;;;5110962;28;20432;-71
2021/08/12 01:44:06;;;;;;;6.93;5.57;;;;;;;;;;5112227;28;20446;-72
2021/08/12 01:46:34;;;;;;;7.43;5.47;;;;;;;;;;5112196;28;20539;-71
2021/08/12 01:49:02;;;;;;;6.83;5.77;;;;;;;;;;5112204;28;20450;-72
2021/08/12 01:51:30;;;;;;;8.50;5.50;;;;;;;;;;5112274;28;20438;-71
2021/08/12 01:53:59;;;;;;;7.23;6.33;;;;;;;;;;5110990;28;20479;-72
2021/08/12 01:56:27;;;;;;;6.90;5.50;;;;;;;;;;5111638;28;20445;-72
2021/08/12 01:58:55;;;;;;;8.87;5.93;;;;;;;;;;5111646;28;20450;-72
2021/08/12 02:01:22;;;;;;;7.33;5.67;;;;;;;;;;5111573;28;20518;-72
2021/08/12 02:03:50;;;;;;;7.17;5.97;;;;;;;;;;5111100;28;20529;-72
2021/08/12 02:06:17;;;;;;;7.30;5.33;;;;;;;;;;5112069;28;20538;-72
2021/08/12 02:08:44;;;;;;;6.83;5.67;;;;;;;;;;5111571;28;20526;-72
2021/08/12 02:11:13;;;;;;;6.70;5.70;;;;;;;;;;5111637;28;20883;-73
2021/08/12 02:13:40;;;;;;;6.40;5.50;;;;;;;;;;5111004;28;20482;-72
2021/08/12 02:16:09;;;;;;;7.60;5.70;;;;;;;;;;5111335;28;20440;-72
2021/08/12 02:18:36;;;;;;;7.27;5.47;;;;;;;;;;5111654;28;20496;-72
2021/08/12 02:21:06;;;;;;;8.00;5.70;;;;;;;;;;5111142;28;21007;-72
2021/08/12 02:23:35;;;;;;;6.40;5.37;;;;;;;;;;5111520;28;20809;-72
2021/08/12 02:26:04;;;;;;;6.27;5.20;;;;;;;;;;5111196;28;20814;-73
2021/08/12 02:28:34;;;;;;;8.00;5.20;;;;;;;;;;5111703;28;20462;-73
2021/08/12 02:31:03;;;;;;;7.10;5.67;;;;;;;;;;5110456;28;20526;-72
2021/08/12 02:33:33;;;;;;;6.40;5.30;;;;;;;;;;5111378;28;20995;-72
2021/08/12 02:36:00;;;;;;;6.10;5.50;;;;;;;;;;5111034;28;20436;-72
2021/08/12 02:38:28;;;;;;;8.63;6.27;;;;;;;;;;5111759;28;20788;-72
2021/08/12 02:40:57;;;;;;;6.43;5.83;;;;;;;;;;5110550;28;20436;-72
2021/08/12 02:43:24;;;;;;;8.40;5.50;;;;;;;;;;5111587;28;20452;-72
2021/08/12 02:45:54;;;;;;;6.10;5.50;;;;;;;;;;5110516;28;20969;-72
2021/08/12 02:48:22;;;;;;;7.90;6.03;;;;;;;;;;5096209;28;20436;-72
2021/08/12 02:50:50;;;;;;;7.00;5.63;;;;;;;;;;5111001;28;20447;-72
2021/08/12 02:53:18;;;;;;;7.67;6.10;;;;;;;;;;5115563;28;20486;-72
2021/08/12 02:55:46;;;;;;;7.23;5.50;;;;;;;;;;5114388;28;20450;-72
2021/08/12 02:58:13;;;;;;;7.93;5.53;;;;;;;;;;5115627;28;20522;-72
2021/08/12 03:00:41;;;;;;;7.30;5.93;;;;;;;;;;5114460;28;20531;-71
2021/08/12 03:03:10;;;;;;;7.10;6.30;;;;;;;;;;5115697;28;20522;-72
2021/08/12 03:05:38;;;;;;;5.70;4.80;;;;;;;;;;5116451;28;20436;-72
2021/08/12 03:08:07;;;;;;;6.90;5.50;;;;;;;;;;5114964;28;20438;-72
2021/08/12 03:10:34;;;;;;;7.70;5.73;;;;;;;;;;5115032;28;20547;-72
2021/08/12 03:13:01;;;;;;;6.80;5.90;;;;;;;;;;5114327;28;20443;-72
2021/08/12 03:15:29;;;;;;;6.80;5.93;;;;;;;;;;5115016;28;20443;-72
2021/08/12 03:17:56;;;;;;;8.77;5.50;;;;;;;;;;5113955;28;21038;-72
2021/08/12 03:20:28;;;;;;;5.77;5.27;;;;;;;;;;5115062;28;20472;-72
2021/08/12 03:22:56;;;;;;;5.90;5.30;;;;;;;;;;5114215;28;20522;-72
2021/08/12 03:25:23;;;;;;;5.97;5.37;;;;;;;;;;5114857;28;20526;-73
2021/08/12 03:27:50;;;;;;;7.70;5.80;;;;;;;;;;5114329;28;20467;-72
2021/08/12 03:30:20;;;;;;;6.73;6.03;;;;;;;;;;5114457;28;20440;-72
2021/08/12 03:32:47;;;;;;;7.80;5.67;;;;;;;;;;5114029;28;20438;-72
2021/08/12 03:35:14;;;;;;;6.73;5.77;;;;;;;;;;5115245;28;20478;-72
2021/08/12 03:37:43;;;;;;;7.57;5.67;;;;;;;;;;5114744;28;20446;-72
2021/08/12 03:40:11;;;;;;;5.53;5.00;;;;;;;;;;5114162;28;20531;-72
2021/08/12 03:42:38;;;;;;;7.03;5.40;;;;;;;;;;5114523;28;20859;-72
2021/08/12 03:45:06;;;;;;;9.70;5.93;;;;;;;;;;5113707;28;20474;-73
2021/08/12 03:47:33;;;;;;;7.03;5.83;;;;;;;;;;5114248;28;20486;-73
2021/08/12 03:50:00;;;;;;;6.97;6.33;;;;;;;;;;5113670;28;20530;-72
2021/08/12 03:52:27;;;;;;;6.73;5.40;;;;;;;;;;5114677;28;20439;-72
2021/08/12 03:54:56;;;;;;;7.53;5.50;;;;;;;;;;5113605;28;20559;-72
2021/08/12 03:57:23;;;;;;;7.77;5.87;;;;;;;;;;5113978;28;20458;-72
2021/08/12 03:59:50;;;;;;;11.70;5.60;;;;;;;;;;5113136;28;20989;-72
2021/08/12 04:02:17;;;;;;;7.47;5.33;;;;;;;;;;5113941;28;20444;-72
2021/08/12 04:04:44;;;;;;;6.13;5.53;;;;;;;;;;5113475;28;20543;-72
2021/08/12 04:07:12;;;;;;;6.30;5.63;;;;;;;;;;5114116;28;20445;-72
2021/08/12 04:09:39;;;;;;;7.70;5.70;;;;;;;;;;5113757;28;20450;-71
2021/08/12 04:12:08;;;;;;;6.23;5.30;;;;;;;;;;5113008;28;20436;-71
2021/08/12 04:14:35;;;;;;;6.53;5.83;;;;;;;;;;5113919;28;20558;-71
2021/08/12 04:17:02;;;;;;;6.50;5.80;;;;;;;;;;5113530;28;20443;-71
2021/08/12 04:19:29;;;;;;;6.50;5.90;;;;;;;;;;5113990;28;20451;-71
2021/08/12 04:21:56;;;;;;;8.10;5.27;;;;;;;;;;5112666;28;20986;-70
2021/08/12 04:24:23;;;;;;;6.43;5.70;;;;;;;;;;5113731;28;20446;-71
2021/08/12 04:26:50;;;;;;;6.47;4.80;;;;;;;;;;5112725;28;20482;-71
2021/08/12 04:29:19;;;;;;;6.07;5.47;;;;;;;;;;5112842;28;20947;-71
2021/08/12 04:31:46;;;;;;;6.90;5.53;;;;;;;;;;5113080;28;20443;-71
2021/08/12 04:34:13;;;;;;;7.57;5.87;;;;;;;;;;5113364;28;20558;-71
2021/08/12 04:36:40;;;;;;;12.20;6.17;;;;;;;;;;5113670;28;20454;-71
2021/08/12 04:39:08;;;;;;;8.00;5.77;;;;;;;;;;5113081;28;20478;-71
2021/08/12 04:41:35;;;;;;;5.73;5.23;;;;;;;;;;5112591;28;20923;-71
2021/08/12 04:44:02;;;;;;;6.60;5.43;;;;;;;;;;5112281;28;20454;-71
2021/08/12 04:46:31;;;;;;;7.80;5.80;;;;;;;;;;5113320;28;20788;-71
2021/08/12 04:48:58;;;;;;;9.40;6.70;;;;;;;;;;5112784;28;20791;-71
2021/08/12 04:51:25;;;;;;;12.67;7.60;;;;;;;;;;5112168;28;20798;-73
2021/08/12 04:53:52;;;;;;;7.57;6.70;;;;;;;;;;5112184;28;21006;-71
2021/08/12 04:56:19;;;;;;;8.53;6.60;;;;;;;;;;5111783;28;20527;-72
2021/08/12 04:58:46;;;;;;;8.17;6.07;;;;;;;;;;5113451;28;20446;-72
2021/08/12 05:01:14;;;;;;;9.10;5.67;;;;;;;;;;5112903;28;20467;-72
2021/08/12 05:03:42;;;;;;;8.93;5.90;;;;;;;;;;5113343;28;20523;-72
2021/08/12 05:06:12;;;;;;;7.30;5.20;;;;;;;;;;5111789;28;20444;-72
2021/08/12 05:08:39;;;;;;;6.90;5.47;;;;;;;;;;5113031;28;20537;-72
2021/08/12 05:11:08;;;;;;;10.53;6.77;;;;;;;;;;5112263;28;20462;-71
2021/08/12 05:13:35;;;;;;;10.97;5.87;;;;;;;;;;5112736;28;20446;-72
2021/08/12 05:16:02;;;;;;;6.73;5.53;;;;;;;;;;5110952;28;20440;-72
2021/08/12 05:18:29;;;;;;;6.33;5.17;;;;;;;;;;5112534;28;20444;-72
2021/08/12 05:20:58;;;;;;;6.23;5.07;;;;;;;;;;5112226;28;20558;-72
2021/08/12 05:23:25;;;;;;;8.80;6.00;;;;;;;;;;5113173;28;20436;-72
2021/08/12 05:25:52;;;;;;;6.07;5.27;;;;;;;;;;5111793;28;20872;-71
2021/08/12 05:28:19;;;;;;;6.70;5.43;;;;;;;;;;5112056;28;20874;-72
2021/08/12 05:30:47;;;;;;;5.97;5.37;;;;;;;;;;5112086;28;20535;-72
2021/08/12 05:33:14;;;;;;;8.20;5.17;;;;;;;;;;5111730;28;20444;-72
2021/08/12 05:35:41;;;;;;;6.57;5.80;;;;;;;;;;5112095;28;20468;-72
2021/08/12 05:38:09;;;;;;;7.27;6.43;;;;;;;;;;5112034;28;20462;-72
2021/08/12 05:40:36;;;;;;;10.93;6.03;;;;;;;;;;5112280;28;20801;-72
2021/08/12 05:43:04;;;;;;;9.73;5.80;;;;;;;;;;5111407;28;20865;-72
2021/08/12 05:45:31;;;;;;;6.27;5.67;;;;;;;;;;5112238;28;20447;-72
2021/08/12 05:47:58;;;;;;;7.30;5.73;;;;;;;;;;5111746;28;20447;-72
2021/08/12 05:50:25;;;;;;;8.60;6.07;;;;;;;;;;5111406;28;20870;-72
2021/08/12 05:52:52;;;;;;;6.50;5.70;;;;;;;;;;5110920;28;20530;-71
2021/08/12 05:55:21;;;;;;;6.97;5.70;;;;;;;;;;5111327;28;20475;-71
2021/08/12 05:57:48;;;;;;;7.10;5.77;;;;;;;;;;5112064;28;20543;-72
2021/08/12 06:00:15;;;;;;;6.30;5.60;;;;;;;;;;5111285;28;20561;-72
2021/08/12 06:02:42;;;;;;;8.90;6.20;;;;;;;;;;5112192;28;20526;-72
2021/08/12 06:05:10;;;;;;;7.10;5.77;;;;;;;;;;5111308;28;20523;-71
2021/08/12 06:07:37;;;;;;;7.83;5.87;;;;;;;;;;5111676;28;20510;-73
2021/08/12 06:10:04;;;;;;;6.30;5.53;;;;;;;;;;5110628;28;20444;-72
2021/08/12 06:12:33;;;;;;;8.50;6.20;;;;;;;;;;5111499;28;20436;-71
2021/08/12 06:15:00;;;;;;;7.30;4.90;;;;;;;;;;5111153;28;20491;-71
2021/08/12 06:17:27;;;;;;;6.93;5.80;;;;;;;;;;5111717;28;20518;-71
2021/08/12 06:19:54;;;;;;;6.43;5.80;;;;;;;;;;5110417;28;20452;-70
2021/08/12 06:22:21;;;;;;;6.87;5.87;;;;;;;;;;5111521;28;20432;-72
2021/08/12 06:24:48;;;;;;;10.50;5.90;;;;;;;;;;5111422;28;20535;-72
2021/08/12 06:27:16;;;;;;;6.87;5.07;;;;;;;;;;5110706;28;20870;-71
2021/08/12 06:29:44;;;;;;;6.80;6.10;;;;;;;;;;5111386;28;20526;-72
2021/08/12 06:32:12;;;;;;;11.13;6.00;;;;;;;;;;5111264;28;20462;-72
2021/08/12 06:34:39;;;;;;;7.10;5.20;;;;;;;;;;5111432;28;20486;-72
2021/08/12 06:37:06;;;;;;;10.23;6.00;;;;;;;;;;5110937;28;20450;-71
2021/08/12 06:39:33;;;;;;;7.80;6.23;;;;;;;;;;5111302;28;20808;-71
2021/08/12 06:42:00;;;;;;;6.97;6.07;;;;;;;;;;5110866;28;20454;-71
2021/08/12 06:44:27;;;;;;;7.10;6.20;;;;;;;;;;5111126;28;20538;-72
2021/08/12 06:46:56;;;;;;;7.20;5.47;;;;;;;;;;5110127;28;20798;-71
2021/08/12 06:49:23;;;;;;;9.13;6.50;;;;;;;;;;5111022;28;20527;-72
2021/08/12 06:51:50;;;;;;;11.67;5.70;;;;;;;;;;5110436;28;20444;-72
2021/08/12 06:54:17;;;;;;;8.23;6.50;;;;;;;;;;5110839;28;20482;-73
2021/08/12 06:56:44;;;;;;;8.93;6.20;;;;;;;;;;5111715;28;20866;-72
2021/08/12 06:59:12;;;;;;;7.50;5.30;;;;;;;;;;5106280;28;20452;-73
2021/08/12 07:01:39;;;;;;;6.90;5.50;;;;;;;;;;5101586;28;20449;-74
2021/08/12 07:04:07;;;;;;;6.47;5.43;;;;;;;;;;5106938;28;20455;-74
2021/08/12 07:06:38;;;;;;;7.00;5.60;;;;;;;;;;5103432;28;20440;-74
2021/08/12 07:09:05;;;;;;;5.90;5.30;;;;;;;;;;5108873;28;20838;-74
2021/08/12 07:11:32;;;;;;;8.23;5.50;;;;;;;;;;5109147;28;20479;-74
2021/08/12 07:13:59;;;;;;;8.30;5.67;;;;;;;;;;5110696;28;20785;-73
2021/08/12 07:16:26;;;;;;;6.97;5.67;;;;;;;;;;5111063;28;20471;-75
2021/08/12 07:18:54;;;;;;;6.93;5.23;;;;;;;;;;5110002;28;20480;-74
2021/08/12 07:21:23;;;;;;;8.40;5.97;;;;;;;;;;5110337;28;20467;-74
2021/08/12 07:23:50;;;;;;;6.40;5.80;;;;;;;;;;5110813;28;20443;-74
2021/08/12 07:26:18;;;;;;;8.80;6.53;;;;;;;;;;5109790;28;20486;-75
2021/08/12 07:28:46;;;;;;;6.30;4.83;;;;;;;;;;5111280;28;20514;-75
2021/08/12 07:31:14;;;;;;;6.83;6.13;;;;;;;;;;5110487;28;20562;-75
2021/08/12 07:33:41;;;;;;;7.63;6.03;;;;;;;;;;5111324;28;20459;-75
2021/08/12 07:36:08;;;;;;;7.10;5.33;;;;;;;;;;5110608;28;20570;-75
2021/08/12 07:38:37;;;;;;;7.53;5.60;;;;;;;;;;5112369;28;20531;-75
2021/08/12 07:41:05;;;;;;;7.07;5.43;;;;;;;;;;5114097;28;20939;-75
2021/08/12 07:43:32;;;;;;;7.00;5.67;;;;;;;;;;5113330;28;20526;-75
2021/08/12 07:45:59;;;;;;;6.93;5.57;;;;;;;;;;5114224;28;20445;-74
2021/08/12 07:48:26;;;;;;;6.97;6.27;;;;;;;;;;5114119;28;20443;-72
2021/08/12 07:50:53;;;;;;;7.03;6.07;;;;;;;;;;5114709;28;20461;-75
2021/08/12 07:53:20;;;;;;;6.53;5.37;;;;;;;;;;5116412;28;20539;-75
2021/08/12 07:55:49;;;;;;;9.50;6.17;;;;;;;;;;5113669;28;20471;-77
2021/08/12 07:58:16;;;;;;;7.10;5.33;;;;;;;;;;5113986;28;20446;-76
2021/08/12 08:00:43;;;;;;;5.30;4.67;;;;;;;;;;5115318;28;20538;-78
2021/08/12 08:03:10;;;;;;;6.60;5.03;;;;;;;;;;5114688;28;20475;-78
2021/08/12 08:05:38;;;;;;;8.40;5.90;;;;;;;;;;5114741;28;20862;-76
2021/08/12 08:08:05;;;;;;;8.00;5.30;;;;;;;;;;5114032;28;20447;-77
2021/08/12 08:10:32;;;;;;;7.00;6.17;;;;;;;;;;5113799;28;20531;-76
2021/08/12 08:13:01;;;;;;;6.63;5.93;;;;;;;;;;5113446;28;20932;-74
2021/08/12 08:15:28;;;;;;;6.83;6.03;;;;;;;;;;5109812;28;20562;-77
2021/08/12 08:17:55;;;;;;;7.23;5.90;;;;;;;;;;5113964;28;20531;-76
2021/08/12 08:20:23;;;;;;;7.30;5.50;;;;;;;;;;5113411;28;20471;-76
2021/08/12 08:22:50;;;;;;;9.23;6.20;;;;;;;;;;5114335;28;20455;-77
2021/08/12 08:25:17;;;;;;;8.17;6.37;;;;;;;;;;5113255;28;20444;-74
2021/08/12 08:27:44;;;;;;;6.20;5.40;;;;;;;;;;5114170;28;20519;-78
2021/08/12 08:30:19;;;;;;;9.77;5.20;;;;;;;;;;5112824;28;20453;-73
2021/08/12 08:32:46;;;;;;;7.27;6.57;;;;;;;;;;5113834;28;20446;-74
2021/08/12 08:35:13;;;;;;;8.20;5.87;;;;;;;;;;5112716;28;20998;-74
2021/08/12 08:37:40;;;;;;;6.80;5.83;;;;;;;;;;5113657;28;20471;-76
2021/08/12 08:40:08;;;;;;;8.70;5.33;;;;;;;;;;5112568;28;20447;-73
2021/08/12 08:42:35;;;;;;;8.10;6.20;;;;;;;;;;5111101;28;20482;-76
2021/08/12 08:45:02;;;;;;;7.40;5.37;;;;;;;;;;5103017;28;20483;-74
2021/08/12 08:47:31;;;;;;;8.53;5.80;;;;;;;;;;5096617;28;20519;-76
2021/08/12 08:49:59;;;;;;;6.73;5.43;;;;;;;;;;5106740;28;20534;-75
2021/08/12 08:52:27;;;;;;;6.17;5.40;;;;;;;;;;5103514;28;20918;-75
2021/08/12 08:54:54;;;;;;;6.00;5.13;;;;;;;;;;5107641;28;20558;-73
2021/08/12 08:57:22;;;;;;;5.90;5.30;;;;;;;;;;5104378;28;20440;-74
2021/08/12 08:59:49;;;;;;;6.13;5.40;;;;;;;;;;5104206;28;20997;-74
2021/08/12 09:02:16;;;;;;;7.00;5.97;;;;;;;;;;5102835;28;20531;-74
2021/08/12 09:04:45;;;;;;;7.10;5.57;;;;;;;;;;5104508;28;20440;-75
2021/08/12 09:07:12;;;;;;;9.60;5.90;;;;;;;;;;5107783;28;20518;-74
2021/08/12 09:09:39;;;;;;;9.00;6.13;;;;;;;;;;5105644;28;20534;-75
2021/08/12 09:12:07;;;;;;;8.63;5.40;;;;;;;;;;5110606;28;20617;-74
2021/08/12 09:14:35;;;;;;;7.07;5.80;;;;;;;;;;5105094;28;20488;-75
2021/08/12 09:17:23;;;;;;;8.80;5.20;;;;;;;;;;5104335;28;20451;-73
2021/08/12 09:20:02;;;;;;;5.90;4.67;;;;;;;;;;5106902;28;20484;-73
2021/08/12 09:22:30;;;;;;;7.00;5.43;;;;;;;;;;5104830;28;20858;-74
2021/08/12 09:24:57;;;;;;;9.00;5.30;;;;;;;;;;5103503;28;20444;-72
2021/08/12 09:27:25;;;;;;;5.73;4.63;;;;;;;;;;5106246;28;20447;-74
2021/08/12 09:30:09;;;;;;;8.73;5.27;;;;;;;;;;5103447;28;20467;-74
2021/08/12 09:32:44;;;;;;;14.23;5.40;;;;;;;;;;5104977;28;20477;-74
2021/08/12 09:35:13;;;;;;;5.93;5.40;;;;;;;;;;5100809;28;20543;-74
2021/08/12 09:37:40;;;;;;;6.87;5.10;;;;;;;;;;5108664;28;20539;-74
2021/08/12 09:40:08;;;;;;;7.13;5.57;;;;;;;;;;5111578;28;20948;-75
2021/08/12 09:42:55;;;;;;;6.83;5.73;;;;;;;;;;5103506;28;20484;-74
2021/08/12 09:45:26;;;;;;;7.97;4.80;;;;;;;;;;5106147;28;20482;-74
2021/08/12 09:47:53;;;;;;;7.40;5.77;;;;;;;;;;5112317;28;20447;-74
2021/08/12 09:50:31;;;;;;;7.00;5.20;;;;;;;;;;5111560;28;20549;-75
2021/08/12 09:52:59;;;;;;;6.93;5.10;;;;;;;;;;5099660;28;20458;-74
2021/08/12 09:55:26;;;;;;;8.27;5.43;;;;;;;;;;5106710;28;20566;-74
2021/08/12 09:57:54;;;;;;;5.90;5.27;;;;;;;;;;5112252;28;20475;-74
2021/08/12 10:00:31;;;;;;;5.77;4.90;;;;;;;;;;5099607;28;20545;-73
2021/08/12 10:02:59;;;;;;;5.53;4.93;;;;;;;;;;5112340;28;20434;-71
2021/08/12 10:05:26;;;;;;;5.83;5.17;;;;;;;;;;5111697;28;20531;-71
2021/08/12 10:07:55;;;;;;;5.73;5.20;;;;;;;;;;5111569;28;20516;-72
2021/08/12 10:10:23;;;;;;;7.60;5.07;;;;;;;;;;5111342;28;20737;-71
2021/08/12 10:12:51;;;;;;;6.30;4.97;;;;;;;;;;5111628;28;20534;-71
2021/08/12 10:15:20;;;;;;;4.60;4.20;;;;;;;;;;5110911;28;21012;-71
2021/08/12 10:17:48;;;;;;;5.37;4.97;;;;;;;;;;5111753;28;20446;-70
2021/08/12 10:20:17;;;;;;;7.30;5.13;;;;;;;;;;5110429;28;20471;-71
2021/08/12 10:22:45;;;;;;;4.87;4.47;;;;;;;;;;5111843;28;20839;-72
2021/08/12 10:25:13;;;;;;;6.67;5.13;;;;;;;;;;5110840;28;20446;-72
2021/08/12 10:27:41;;;;;;;8.37;4.93;;;;;;;;;;5100238;28;20966;-72
2021/08/12 10:30:09;;;;;;;6.83;4.60;;;;;;;;;;5090579;28;20451;-72
2021/08/12 10:32:37;;;;;;;4.90;4.47;;;;;;;;;;5091602;28;20443;-73
2021/08/12 10:35:05;;;;;;;5.23;4.70;;;;;;;;;;5102085;28;20438;-72
2021/08/12 10:37:32;;;;;;;5.17;4.20;;;;;;;;;;5111705;28;20442;-73
2021/08/12 10:40:00;;;;;;;5.23;4.83;;;;;;;;;;5111834;28;20441;-72
2021/08/12 10:42:28;;;;;;;5.97;5.47;;;;;;;;;;5095706;28;20440;-72
2021/08/12 10:44:56;;;;;;;6.00;5.17;;;;;;;;;;5098677;28;20438;-73
2021/08/12 10:47:39;;;;;;;6.00;5.20;;;;;;;;;;5090898;28;20447;-72
2021/08/12 10:50:26;;;;;;;5.43;4.93;;;;;;;;;;5090864;28;20844;-72
2021/08/12 10:53:13;;;;;;;5.47;4.97;;;;;;;;;;5110456;28;20443;-72
2021/08/12 10:55:59;;;;;;;5.83;4.73;;;;;;;;;;5110798;28;20475;-72
2021/08/12 10:58:44;;;;;;;7.50;5.60;;;;;;;;;;5109808;28;20613;-73
2021/08/12 11:01:12;;;;;;;5.60;5.10;;;32.90;1.00;;;;;;5110650;28;20423;-74
2021/08/12 11:03:52;;;;;;;6.30;5.80;;;28.40;99.90;;;;;;5111649;28;20824;-74
2021/08/12 11:06:20;;;;;;;5.53;5.00;;;28.20;99.90;;;;;;5110949;28;20907;-74
2021/08/12 11:08:59;;;;;;;6.97;5.87;;;28.50;99.90;;;;;;5097812;28;20313;-71
2021/08/12 11:12:03;;;;;;;5.83;4.80;;;28.60;99.90;;;;;;5109923;28;20493;-72
2021/08/12 11:14:58;;;;;;;6.83;6.20;;;28.50;99.90;;;;;;5114720;28;20656;-73
2021/08/12 11:17:47;;;;;;;5.50;5.00;;;28.60;99.90;;;;;;5114544;28;20782;-72
2021/08/12 11:20:32;;;;;;;5.70;5.17;;;28.80;99.90;;;;;;5114203;28;20217;-72
2021/08/12 11:23:38;;;;;;;6.40;5.77;;;28.70;99.90;;;;;;5115038;28;20272;-72
2021/08/12 11:26:07;;;;;;;6.43;5.63;;;28.70;99.90;;;;;;5115217;28;20208;-72
2021/08/12 11:28:52;;;;;;;9.20;6.33;;;28.60;99.90;;;;;;5114851;28;20435;-72
2021/08/12 11:31:55;;;;;;;6.90;6.00;;;28.30;99.90;;;;;;5114538;28;20201;-72
2021/08/12 11:34:27;;;;;;;6.97;5.47;;;28.20;99.90;;;;;;5114447;28;20525;-72
2021/08/12 11:37:12;;;;;;;6.73;6.00;;;28.40;99.90;;;;;;5114942;28;20205;-72
2021/08/12 11:39:56;;;;;;;7.00;5.50;;;28.70;99.90;;;;;;5114734;28;20181;-72
2021/08/12 11:42:27;;;;;;;7.83;5.83;;;;;;;;;;5114347;28;20272;-71
2021/08/12 11:44:56;;;;;;;6.20;5.53;;;;;;;;;;5114791;28;20204;-71
2021/08/12 11:47:24;;;;;;;6.70;6.00;;;;;;;;;;5113869;28;20287;-72
2021/08/12 11:49:52;;;;;;;10.05;5.97;;;;;;;;;;5114627;28;20288;-71
2021/08/12 11:52:23;;;;;;;6.35;5.75;;;;;;;;;;5113909;28;20193;-71
2021/08/12 11:54:56;;;;;;;6.53;5.60;;;;;;;;;;5114688;28;20219;-72
2021/08/12 11:57:38;;;;;;;5.82;5.32;;;;;;;;;;5114008;28;20252;-71
2021/08/12 12:00:09;;;;;;;7.07;5.80;;;;;;;;;;5114304;28;20675;-71
2021/08/12 12:02:37;;;;;;;9.25;6.18;;;;;;;;;;5114502;28;20237;-72
2021/08/12 12:05:11;;;;;;;7.57;6.68;;;;;;;;;;5114312;28;20633;-72
2021/08/12 12:07:44;;;;;;;7.00;6.03;;;;;;;;;;5114325;28;20217;-71
2021/08/12 12:10:11;;;;;;;6.60;6.03;;;29.00;99.90;;;;;;5111837;28;20201;-71
2021/08/12 12:12:38;;;;;;;7.13;6.43;;;30.30;99.90;;;;;;5112292;28;20461;-72
2021/08/12 12:15:06;;;;;;;6.90;5.78;;;30.20;99.90;;;;;;5112035;28;20284;-72
2021/08/12 12:17:33;;;;;;;8.20;6.28;;;30.30;99.90;;;;;;5111287;28;20223;-72
2021/08/12 12:20:08;;;;;;;6.63;5.78;;;30.20;99.90;;;;;;5110856;28;20669;-71
2021/08/12 12:22:37;;;;;;;8.25;6.65;;;30.20;99.90;;;;;;5111701;28;20284;-72
2021/08/12 12:25:07;;;;;;;12.38;6.65;;;30.30;99.90;;;;;;5110990;28;20666;-72
2021/08/12 12:27:34;;;;;;;6.20;5.60;;;30.10;99.90;;;;;;5110398;28;20599;-71
2021/08/12 12:30:10;;;;;;;6.75;6.05;;;29.80;99.90;;;;;;5109719;28;20201;-72
2021/08/12 12:32:38;;;;;;;6.38;5.78;;;30.10;99.90;;;;;;5108787;28;20242;-72
2021/08/12 12:35:07;;;;;;;6.15;5.55;;;30.00;99.90;;;;;;5106263;28;20189;-72
2021/08/12 12:37:35;;;;;;;7.55;6.85;;;29.80;99.90;;;;;;5106480;28;20600;-72
2021/08/12 12:40:03;;;;;;;7.25;5.75;;;;;;;;;;5104025;28;20301;-72
2021/08/12 12:42:34;;;;;;;6.57;5.68;;;;;;;;;;5109124;28;20233;-72
2021/08/12 12:45:03;;;;;;;7.28;6.57;;;;;;;;;;5101565;28;20693;-71
2021/08/12 12:47:31;;;;;;;8.68;6.63;;;;;;;;;;5110832;28;20197;-72
2021/08/12 12:50:13;;;;;;;7.47;6.60;;;;;;;;;;5103370;28;20281;-73
2021/08/12 12:52:56;;;;;;;6.82;6.13;;;;;;;;;;5104118;28;20239;-72
2021/08/12 12:55:25;;;;;;;6.57;5.97;;;;;;;;;;5100750;28;20185;-72
2021/08/12 12:57:52;;;;;;;6.93;6.00;;;;;;;;;;5107791;28;20274;-72
2021/08/12 13:00:26;;;;;;;7.10;6.40;;;;;;;;;;5107306;28;20607;-72
2021/08/12 13:02:54;;;;;;;8.32;6.22;;;;;;;;;;5107695;28;20185;-72
2021/08/12 13:05:23;;;;;;;6.93;6.32;;;;;;;;;;5107208;28;20211;-71
2021/08/12 13:07:50;;;;;;;7.20;6.13;;;;;;;;;;5107716;28;20193;-72
2021/08/12 13:10:23;;;;;;;6.35;5.72;;;;;;;;;;5105111;28;20224;-72
2021/08/12 13:13:00;;;;;;;6.15;5.65;;;;;;;;;;5109883;28;20530;-70
2021/08/12 13:15:27;;;;;;;6.75;6.13;;;;;;;;;;5109481;28;20236;-71
2021/08/12 13:17:58;;;;;;;6.60;5.82;;;;;;;;;;5110273;28;20593;-72
2021/08/12 13:20:27;;;;;;;7.32;5.82;;;;;;;;;;5109177;28;20304;-72
2021/08/12 13:22:57;;;;;;;7.30;6.57;;;;;;;;;;5110122;28;20661;-72
2021/08/12 13:25:25;;;;;;;7.20;6.50;;;;;;;;;;5109630;28;20693;-72
2021/08/12 13:27:54;;;;;;;7.18;6.45;;;;;;;;;;5110264;28;20207;-72
2021/08/12 13:30:28;;;;;;;6.10;5.60;;;;;;;;;;5109285;28;20222;-71
2021/08/12 13:32:55;;;;;;;6.68;5.97;;;;;;;;;;5110323;28;20192;-71
2021/08/12 13:35:22;;;;;;;6.53;5.90;;;;;;;;;;5107739;28;20193;-71
2021/08/12 13:37:51;;;;;;;6.97;6.28;;;;;;;;;;5109485;28;20262;-71
2021/08/12 13:40:18;;;;;;;6.97;6.38;;;;;;;;;;5090808;28;20719;-71
2021/08/12 13:42:45;;;;;;;7.88;6.05;;;;;;;;;;5095790;28;20272;-71
2021/08/12 13:45:12;;;;;;;6.85;6.07;;;;;;;;;;5108714;28;20196;-72
2021/08/12 13:47:39;;;;;;;7.70;7.00;;;;;;;;;;5109170;28;20645;-72
2021/08/12 13:50:07;;;;;;;6.20;5.75;;;;;;;;;;5110127;28;20200;-72
2021/08/12 13:52:34;;;;;;;6.97;6.38;;;29.80;99.90;;;;;;5108575;28;20201;-73
2021/08/12 13:55:02;;;;;;;6.50;5.78;;;31.70;39.40;;;;;;5108844;28;20189;-72
2021/08/12 13:57:29;;;;;;;7.68;6.97;;;32.00;34.30;;;;;;5109287;28;20653;-73
2021/08/12 13:59:56;;;;;;;7.40;6.07;;;31.70;35.60;;;;;;5108962;28;20194;-73
2021/08/12 14:02:23;;;;;;;8.27;6.65;;;31.60;32.20;;;;;;5108090;28;20781;-72
2021/08/12 14:04:50;;;;;;;6.70;6.00;;;31.50;28.20;;;;;;5109339;28;20280;-72
2021/08/12 14:07:22;;;;;;;6.50;5.80;;;31.30;26.70;;;;;;5106306;28;20288;-72
2021/08/12 14:09:49;;;;;;;6.32;5.82;;;31.40;25.60;;;;;;5106931;28;20193;-72
2021/08/12 14:12:18;;;;;;;6.90;6.20;;;31.40;25.10;;;;;;5108967;28;20287;-72
2021/08/12 14:14:45;;;;;;;7.60;6.93;;;31.60;23.60;;;;;;5109340;28;20204;-72
2021/08/12 14:17:12;;;;;;;6.13;5.63;;;31.70;20.20;;;;;;5108590;28;20221;-72
2021/08/12 14:19:39;;;;;;;5.70;5.20;;;31.50;21.70;;;;;;5109460;28;20204;-72
2021/08/12 14:22:06;;;;;;;8.05;6.65;;;31.80;22.60;;;;;;5109106;28;20325;-72
2021/08/12 14:24:33;;;;;;;7.45;6.75;;;32.30;20.00;;;;;;5108579;28;20190;-71
2021/08/12 14:27:02;;;;;;;7.25;6.55;;;;;;;;;;5098622;28;20234;-72
2021/08/12 14:29:31;;;;;;;7.07;6.47;;;;;;;;;;5098465;28;20200;-72
2021/08/12 14:31:58;;;;;;;6.93;6.32;;;;;;;;;;5098080;28;20208;-72
2021/08/12 14:34:26;;;;;;;6.75;6.00;;;;;;;;;;5100551;28;20194;-72
2021/08/12 14:36:53;;;;;;;7.75;7.05;;;;;;;;;;5100639;28;20220;-72
2021/08/12 14:39:20;;;;;;;8.98;7.28;;;;;;;;;;5103204;28;20297;-72
2021/08/12 14:41:47;;;;;;;7.38;5.90;;;;;;;;;;5099527;28;20670;-72